sensor_id;sensor_type;location;lat;lon;timestamp;temperature;humidity
66610;DHT22;53468;48.276;14.416;2024-01-16T02:28:32;0.00;76.60
66610;DHT22;53468;48.276;14.416;2024-01-16T02:34:22;0.00;76.40
66610;DHT22;53468;48.276;14.416;2024-01-16T02:40:34;0.00;75.90
66610;DHT22;53468;48.276;14.416;2024-01-16T02:45:59;0.00;76.10
66610;DHT22;53468;48.276;14.416;2024-01-16T02:51:37;0.00;76.30
66610;DHT22;53468;48.276;14.416;2024-01-16T02:57:06;-0.10;75.20
66610;DHT22;53468;48.276;14.416;2024-01-16T03:20:31;-0.30;75.70
66610;DHT22;53468;48.276;14.416;2024-01-16T03:26:19;-0.30;75.40
66610;DHT22;53468;48.276;14.416;2024-01-16T03:31:51;-0.40;75.70
66610;DHT22;53468;48.276;14.416;2024-01-16T04:18:36;0.00;74.10
66610;DHT22;53468;48.276;14.416;2024-01-16T04:36:37;0.10;74.00
66610;DHT22;53468;48.276;14.416;2024-01-16T04:42:08;0.10;72.90
66610;DHT22;53468;48.276;14.416;2024-01-16T04:47:30;0.10;72.80
66610;DHT22;53468;48.276;14.416;2024-01-16T06:28:12;-0.20;74.00
66610;DHT22;53468;48.276;14.416;2024-01-16T06:34:05;-0.20;72.90
66610;DHT22;53468;48.276;14.416;2024-01-16T06:39:47;-0.20;73.50
66610;DHT22;53468;48.276;14.416;2024-01-16T07:09:35;-0.10;72.50
66610;DHT22;53468;48.276;14.416;2024-01-16T07:20:57;0.00;71.80
66610;DHT22;53468;48.276;14.416;2024-01-16T07:26:59;0.10;72.00
66610;DHT22;53468;48.276;14.416;2024-01-16T07:32:59;0.10;71.70
66610;DHT22;53468;48.276;14.416;2024-01-16T07:39:04;0.10;71.50
66610;DHT22;53468;48.276;14.416;2024-01-16T07:44:40;0.20;72.50
66610;DHT22;53468;48.276;14.416;2024-01-16T08:50:49;0.80;69.70
66610;DHT22;53468;48.276;14.416;2024-01-16T08:56:46;0.80;69.20
66610;DHT22;53468;48.276;14.416;2024-01-16T09:26:00;1.20;68.90
66610;DHT22;53468;48.276;14.416;2024-01-16T09:31:24;1.30;67.60
66610;DHT22;53468;48.276;14.416;2024-01-16T09:43:24;1.60;66.60
66610;DHT22;53468;48.276;14.416;2024-01-16T09:49:19;1.60;67.60
66610;DHT22;53468;48.276;14.416;2024-01-16T09:54:35;1.80;66.30
66610;DHT22;53468;48.276;14.416;2024-01-16T10:12:26;2.00;65.70
66610;DHT22;53468;48.276;14.416;2024-01-16T10:18:02;2.00;64.60
66610;DHT22;53468;48.276;14.416;2024-01-16T10:23:34;1.90;64.60
66610;DHT22;53468;48.276;14.416;2024-01-16T10:29:34;1.80;66.10
66610;DHT22;53468;48.276;14.416;2024-01-16T10:46:53;1.80;65.80
66610;DHT22;53468;48.276;14.416;2024-01-16T10:53:03;1.90;64.60
66610;DHT22;53468;48.276;14.416;2024-01-16T11:22:19;2.10;64.60
66610;DHT22;53468;48.276;14.416;2024-01-16T11:34:23;2.40;63.10
66610;DHT22;53468;48.276;14.416;2024-01-16T12:41:19;2.80;58.60
66610;DHT22;53468;48.276;14.416;2024-01-16T12:46:57;2.70;59.20
66610;DHT22;53468;48.276;14.416;2024-01-16T12:52:28;2.80;60.00
66610;DHT22;53468;48.276;14.416;2024-01-16T14:05:27;2.90;59.40
66610;DHT22;53468;48.276;14.416;2024-01-16T14:11:17;2.70;63.30
66610;DHT22;53468;48.276;14.416;2024-01-16T14:17:19;2.70;63.60
66610;DHT22;53468;48.276;14.416;2024-01-16T15:04:38;2.50;58.80
66610;DHT22;53468;48.276;14.416;2024-01-16T15:34:01;1.20;70.70
66610;DHT22;53468;48.276;14.416;2024-01-16T15:39:20;0.70;71.30
66610;DHT22;53468;48.276;14.416;2024-01-16T15:44:24;0.50;73.10
66610;DHT22;53468;48.276;14.416;2024-01-16T15:50:01;0.30;73.50
66610;DHT22;53468;48.276;14.416;2024-01-16T15:55:20;0.40;72.10
66610;DHT22;53468;48.276;14.416;2024-01-16T16:00:26;0.30;71.50
66610;DHT22;53468;48.276;14.416;2024-01-16T16:05:48;0.20;72.80
66610;DHT22;53468;48.276;14.416;2024-01-16T16:11:05;0.10;73.10
66610;DHT22;53468;48.276;14.416;2024-01-16T16:21:53;-0.10;75.10
66610;DHT22;53468;48.276;14.416;2024-01-16T16:27:32;-0.30;76.40
66610;DHT22;53468;48.276;14.416;2024-01-16T16:45:08;-0.40;75.10
66610;DHT22;53468;48.276;14.416;2024-01-16T16:50:32;-0.50;75.70
66610;DHT22;53468;48.276;14.416;2024-01-16T16:55:48;-0.50;76.60
66610;DHT22;53468;48.276;14.416;2024-01-16T17:06:49;-0.50;77.70
66610;DHT22;53468;48.276;14.416;2024-01-16T17:12:13;-0.50;76.40
66610;DHT22;53468;48.276;14.416;2024-01-16T17:17:33;-0.50;76.70
66610;DHT22;53468;48.276;14.416;2024-01-16T17:23:02;-0.70;77.80
66610;DHT22;53468;48.276;14.416;2024-01-16T17:28:44;-0.60;77.50
66610;DHT22;53468;48.276;14.416;2024-01-16T17:34:03;-0.70;77.60
66610;DHT22;53468;48.276;14.416;2024-01-16T17:39:11;-0.70;77.60
66610;DHT22;53468;48.276;14.416;2024-01-16T17:44:22;-0.60;76.60
66610;DHT22;53468;48.276;14.416;2024-01-16T17:49:42;-0.50;77.50
66610;DHT22;53468;48.276;14.416;2024-01-16T17:55:21;-0.60;78.30
66610;DHT22;53468;48.276;14.416;2024-01-16T18:00:51;-0.70;77.50
66610;DHT22;53468;48.276;14.416;2024-01-16T18:06:33;-0.70;76.40
66610;DHT22;53468;48.276;14.416;2024-01-16T18:12:11;-0.70;76.80
66610;DHT22;53468;48.276;14.416;2024-01-16T18:17:46;-0.80;77.40
66610;DHT22;53468;48.276;14.416;2024-01-16T18:29:11;-0.80;76.70
66610;DHT22;53468;48.276;14.416;2024-01-16T18:34:31;-0.90;77.40
66610;DHT22;53468;48.276;14.416;2024-01-16T18:39:51;-0.90;76.30
66610;DHT22;53468;48.276;14.416;2024-01-16T18:51:20;-1.00;77.20
66610;DHT22;53468;48.276;14.416;2024-01-16T18:56:42;-0.90;77.20
66610;DHT22;53468;48.276;14.416;2024-01-16T19:02:19;-1.10;77.90
66610;DHT22;53468;48.276;14.416;2024-01-16T19:07:40;-1.10;77.40
66610;DHT22;53468;48.276;14.416;2024-01-16T19:19:18;-1.30;78.00
66610;DHT22;53468;48.276;14.416;2024-01-16T19:49:02;-1.80;79.00
66610;DHT22;53468;48.276;14.416;2024-01-16T19:54:25;-2.10;78.40
66610;DHT22;53468;48.276;14.416;2024-01-16T19:59:34;-2.50;78.50
66610;DHT22;53468;48.276;14.416;2024-01-16T20:04:49;-2.70;80.30
66610;DHT22;53468;48.276;14.416;2024-01-16T20:10:08;-2.80;80.00
66610;DHT22;53468;48.276;14.416;2024-01-16T20:15:31;-2.80;80.20
66610;DHT22;53468;48.276;14.416;2024-01-16T20:20:56;-3.10;79.20
66610;DHT22;53468;48.276;14.416;2024-01-16T20:26:04;-3.20;80.50
66610;DHT22;53468;48.276;14.416;2024-01-16T20:31:08;-3.30;82.20
66610;DHT22;53468;48.276;14.416;2024-01-16T20:36:14;-3.30;82.40
66610;DHT22;53468;48.276;14.416;2024-01-16T20:41:18;-3.40;82.70
66610;DHT22;53468;48.276;14.416;2024-01-16T20:46:25;-3.40;82.50
66610;DHT22;53468;48.276;14.416;2024-01-16T20:51:36;-3.50;81.10
66610;DHT22;53468;48.276;14.416;2024-01-16T20:56:40;-3.70;80.50
66610;DHT22;53468;48.276;14.416;2024-01-16T21:01:44;-3.80;81.60
66610;DHT22;53468;48.276;14.416;2024-01-16T21:06:52;-3.80;83.30
66610;DHT22;53468;48.276;14.416;2024-01-16T21:12:00;-3.70;81.30
66610;DHT22;53468;48.276;14.416;2024-01-16T22:05:51;-4.60;85.30
66610;DHT22;53468;48.276;14.416;2024-01-16T22:12:30;-4.60;84.80
66610;DHT22;53468;48.276;14.416;2024-01-16T22:18:39;-4.60;85.00
